createdAt,value
2019-01-20T00:01:13.770Z,312.93
2019-01-20T00:03:43.402Z,292.17
2019-01-20T00:06:12.739Z,305.00
2019-01-20T00:08:42.147Z,305.90
2019-01-20T00:11:16.603Z,303.30
2019-01-20T00:13:42.548Z,310.73
2019-01-20T00:16:12.029Z,315.23
2019-01-20T00:18:41.422Z,306.70
2019-01-20T00:21:10.742Z,318.40
2019-01-20T00:23:40.202Z,330.03
2019-01-20T00:26:09.686Z,336.17
2019-01-20T00:28:39.106Z,335.83
2019-01-20T00:31:08.654Z,329.87
2019-01-20T00:33:38.061Z,338.40
2019-01-20T00:36:07.410Z,344.97
2019-01-20T00:38:36.834Z,338.27
2019-01-20T00:41:06.266Z,345.10
2019-01-20T00:43:35.666Z,350.50
2019-01-20T00:46:05.261Z,343.17
2019-01-20T00:48:34.811Z,343.37
2019-01-20T00:51:04.388Z,345.60
2019-01-20T00:53:34.984Z,346.80
2019-01-20T00:56:04.696Z,349.63
2019-01-20T00:58:34.134Z,344.00
2019-01-20T01:01:03.573Z,346.37
2019-01-20T01:03:32.978Z,353.10
2019-01-20T01:06:02.438Z,352.27
2019-01-20T01:08:31.922Z,357.30
2019-01-20T01:11:01.296Z,344.87
2019-01-20T01:13:30.689Z,340.83
2019-01-20T01:16:00.137Z,350.93
2019-01-20T01:18:29.519Z,346.87
2019-01-20T01:20:58.915Z,345.23
2019-01-20T01:23:28.311Z,335.67
2019-01-20T01:25:57.738Z,339.30
2019-01-20T01:28:27.153Z,377.97
2019-01-20T01:30:56.759Z,362.17
2019-01-20T01:33:26.161Z,346.47
2019-01-20T01:35:55.512Z,349.17
2019-01-20T01:38:24.961Z,356.43
2019-01-20T01:40:54.386Z,335.37
2019-01-20T01:43:23.777Z,337.93
2019-01-20T01:45:53.252Z,357.13
2019-01-20T01:48:22.580Z,376.17
2019-01-20T01:50:52.009Z,379.00
2019-01-20T01:53:21.442Z,385.67
2019-01-20T01:55:50.792Z,380.03
2019-01-20T01:58:20.238Z,380.37
2019-01-20T02:00:49.616Z,360.67
2019-01-20T02:03:18.999Z,356.17
2019-01-20T02:05:48.399Z,375.00
2019-01-20T02:08:17.824Z,349.10
2019-01-20T02:10:47.250Z,355.37
2019-01-20T02:13:18.239Z,360.60
2019-01-20T02:15:47.643Z,348.73
2019-01-20T02:18:17.003Z,371.10
2019-01-20T02:20:46.400Z,341.73
2019-01-20T02:23:16.271Z,345.07
2019-01-20T02:25:45.693Z,347.77
2019-01-20T02:28:15.030Z,352.57
2019-01-20T02:30:44.715Z,325.60
2019-01-20T02:33:14.203Z,362.97
2019-01-20T02:35:43.602Z,347.13
2019-01-20T02:38:13.051Z,338.40
2019-01-20T02:40:42.445Z,352.60
2019-01-20T02:43:11.842Z,336.90
2019-01-20T02:45:41.294Z,348.93
2019-01-20T02:48:10.689Z,356.13
2019-01-20T02:50:40.078Z,344.53
2019-01-20T02:53:09.536Z,356.23
2019-01-20T02:55:40.038Z,339.73
2019-01-20T02:58:09.600Z,344.07
2019-01-20T03:00:40.006Z,350.60
2019-01-20T03:03:09.407Z,347.93
2019-01-20T03:05:38.878Z,350.20
2019-01-20T03:08:08.274Z,344.67
2019-01-20T03:10:37.707Z,334.30
2019-01-20T03:13:07.127Z,355.13
2019-01-20T03:15:36.966Z,326.87
2019-01-20T03:18:06.531Z,347.37
2019-01-20T03:20:35.963Z,364.77
2019-01-20T03:23:05.339Z,350.53
2019-01-20T03:25:34.720Z,338.47
2019-01-20T03:28:04.838Z,353.10
2019-01-20T03:30:34.236Z,344.60
2019-01-20T03:33:03.613Z,361.27
2019-01-20T03:35:33.134Z,351.23
2019-01-20T03:38:02.544Z,357.00
2019-01-20T03:40:31.947Z,335.50
2019-01-20T03:43:01.563Z,337.83
2019-01-20T03:45:30.935Z,345.70
2019-01-20T03:48:00.379Z,334.07
2019-01-20T03:50:29.805Z,354.47
2019-01-20T03:52:59.204Z,347.17
2019-01-20T03:55:28.569Z,340.80
2019-01-20T03:57:58.014Z,357.77
2019-01-20T04:00:27.396Z,367.43
2019-01-20T04:02:58.453Z,352.03
2019-01-20T04:05:27.899Z,347.07
2019-01-20T04:07:58.367Z,346.77
2019-01-20T04:10:27.805Z,350.80
2019-01-20T04:12:57.203Z,351.03
2019-01-20T04:15:26.569Z,353.70
2019-01-20T04:17:56.336Z,356.47
2019-01-20T04:20:25.753Z,337.83
2019-01-20T04:22:55.320Z,350.50
2019-01-20T04:25:24.734Z,339.67
2019-01-20T04:27:54.122Z,347.13
2019-01-20T04:30:23.527Z,354.67
2019-01-20T04:32:52.945Z,357.10
2019-01-20T04:35:22.366Z,330.33
2019-01-20T04:37:51.853Z,341.63
2019-01-20T04:40:22.199Z,333.17
2019-01-20T04:42:51.595Z,341.23
2019-01-20T04:45:21.006Z,352.87
2019-01-20T04:47:51.912Z,341.70
2019-01-20T04:50:22.284Z,353.17
2019-01-20T04:52:53.007Z,342.23
2019-01-20T04:55:22.370Z,334.20
2019-01-20T04:57:53.665Z,337.27
2019-01-20T05:00:23.999Z,326.53
2019-01-20T05:02:53.355Z,315.30
2019-01-20T05:05:22.831Z,338.83
2019-01-20T05:07:52.357Z,338.00
2019-01-20T05:10:22.748Z,326.10
2019-01-20T05:12:53.249Z,328.40
2019-01-20T05:15:23.408Z,329.97
2019-01-20T05:17:52.976Z,331.00
2019-01-20T05:20:22.605Z,331.50
2019-01-20T05:22:51.976Z,341.30
2019-01-20T05:25:22.481Z,331.10
2019-01-20T05:27:51.942Z,324.90
2019-01-20T05:30:22.436Z,326.80
2019-01-20T05:32:51.914Z,311.40
2019-01-20T05:35:21.372Z,333.10
2019-01-20T05:37:50.877Z,323.13
2019-01-20T05:40:20.859Z,321.80
2019-01-20T05:42:50.292Z,322.50
2019-01-20T05:45:20.795Z,334.60
2019-01-20T05:47:50.263Z,336.13
2019-01-20T05:50:20.102Z,325.43
2019-01-20T05:52:49.489Z,311.67
2019-01-20T05:55:18.875Z,314.27
2019-01-20T05:57:48.321Z,325.20
2019-01-20T06:00:19.283Z,321.47
2019-01-20T06:02:48.736Z,322.30
2019-01-20T06:05:18.157Z,320.90
2019-01-20T06:07:48.044Z,328.67
2019-01-20T06:10:17.616Z,329.93
2019-01-20T06:12:53.865Z,326.73
2019-01-20T06:15:20.664Z,322.80
2019-01-20T06:17:50.088Z,314.10
2019-01-20T06:20:19.474Z,324.37
2019-01-20T06:22:48.963Z,317.87
2019-01-20T06:25:18.383Z,321.77
2019-01-20T06:27:47.774Z,307.87
2019-01-20T06:30:18.694Z,320.13
2019-01-20T06:32:48.092Z,309.00
2019-01-20T06:35:17.523Z,315.93
2019-01-20T06:37:46.962Z,305.20
2019-01-20T06:40:16.377Z,307.60
2019-01-20T06:42:45.757Z,318.57
2019-01-20T06:45:15.513Z,303.33
2019-01-20T06:47:46.006Z,304.83
2019-01-20T06:50:19.291Z,308.50
2019-01-20T06:52:49.855Z,305.37
2019-01-20T06:55:21.776Z,312.33
2019-01-20T06:57:52.487Z,312.93
2019-01-20T07:00:22.716Z,304.50
2019-01-20T07:02:52.086Z,310.10
2019-01-20T07:05:21.882Z,293.43
2019-01-20T07:07:51.612Z,291.83
2019-01-20T07:10:21.099Z,306.30
2019-01-20T07:12:50.479Z,297.53
2019-01-20T07:15:20.721Z,306.00
2019-01-20T07:17:50.463Z,293.33
2019-01-20T07:20:19.877Z,278.67
2019-01-20T07:22:49.645Z,280.37
2019-01-20T07:25:19.055Z,299.73
2019-01-20T07:27:48.426Z,287.53
2019-01-20T07:30:18.888Z,281.87
2019-01-20T07:32:48.359Z,292.77
2019-01-20T07:35:17.745Z,277.47
2019-01-20T07:37:49.253Z,277.17
2019-01-20T07:40:19.566Z,283.23
2019-01-20T07:42:49.142Z,270.47
2019-01-20T07:45:19.722Z,286.00
2019-01-20T07:47:49.263Z,274.30
2019-01-20T07:50:19.539Z,266.57
2019-01-20T07:52:48.912Z,263.37
2019-01-20T07:55:18.309Z,289.20
2019-01-20T07:57:47.785Z,266.57
2019-01-20T08:00:18.364Z,266.43
2019-01-20T08:02:48.220Z,273.47
2019-01-20T08:05:17.878Z,265.90
2019-01-20T08:07:47.319Z,279.30
2019-01-20T08:10:20.902Z,280.67
2019-01-20T08:12:50.601Z,273.63
2019-01-20T08:15:20.660Z,274.83
2019-01-20T08:17:50.148Z,286.13
2019-01-20T08:20:20.515Z,277.83
2019-01-20T08:22:50.139Z,281.00
2019-01-20T08:25:19.827Z,278.33
2019-01-20T08:27:49.222Z,284.80
2019-01-20T08:30:19.723Z,261.03
2019-01-20T08:32:49.079Z,275.07
2019-01-20T08:35:18.540Z,251.60
2019-01-20T08:37:48.058Z,264.00
2019-01-20T08:40:18.841Z,263.87
2019-01-20T08:42:48.281Z,243.77
2019-01-20T08:45:25.004Z,270.47
2019-01-20T08:47:55.447Z,260.73
2019-01-20T08:50:24.856Z,253.17
2019-01-20T08:52:55.895Z,267.37
2019-01-20T08:55:28.738Z,262.63
2019-01-20T08:57:58.109Z,256.10
2019-01-20T09:00:27.531Z,255.00
2019-01-20T09:02:57.004Z,261.57
2019-01-20T09:05:27.389Z,253.43
2019-01-20T09:07:57.893Z,256.60
2019-01-20T09:10:27.391Z,237.50
2019-01-20T09:12:58.179Z,253.23
2019-01-20T09:15:27.539Z,248.33
2019-01-20T09:17:56.928Z,249.20
2019-01-20T09:20:26.445Z,241.37
2019-01-20T09:22:55.819Z,267.20
2019-01-20T09:25:25.183Z,256.37
2019-01-20T09:27:54.645Z,260.30
2019-01-20T09:30:24.212Z,253.53
2019-01-20T09:32:53.598Z,262.77
2019-01-20T09:35:22.992Z,258.93
2019-01-20T09:37:52.332Z,258.40
2019-01-20T09:40:21.728Z,258.43
2019-01-20T09:42:51.161Z,250.13
2019-01-20T09:45:25.119Z,254.07
2019-01-20T09:47:54.844Z,238.90
2019-01-20T09:50:24.431Z,248.83
2019-01-20T09:52:53.951Z,263.07
2019-01-20T09:55:23.541Z,254.90
2019-01-20T09:57:52.935Z,236.70
2019-01-20T10:00:26.643Z,245.83
2019-01-20T10:02:56.166Z,245.43
2019-01-20T10:05:25.646Z,256.10
2019-01-20T10:07:55.216Z,250.27
2019-01-20T10:10:24.603Z,248.20
2019-01-20T10:12:55.484Z,247.77
2019-01-20T10:15:24.918Z,248.77
2019-01-20T10:17:54.295Z,253.93
2019-01-20T10:20:25.695Z,281.73
2019-01-20T10:22:55.242Z,255.67
2019-01-20T10:25:24.715Z,249.43
2019-01-20T10:27:54.234Z,236.47
2019-01-20T10:30:24.840Z,226.33
2019-01-20T10:32:57.491Z,239.33
2019-01-20T10:35:28.511Z,256.03
2019-01-20T10:37:59.536Z,243.53
2019-01-20T10:40:28.991Z,238.60
2019-01-20T10:42:58.514Z,259.23
2019-01-20T10:45:28.013Z,250.77
2019-01-20T10:47:57.442Z,228.57
2019-01-20T10:50:27.438Z,228.30
2019-01-20T10:52:56.856Z,244.70
2019-01-20T10:55:26.224Z,248.80
2019-01-20T10:57:55.634Z,237.87
2019-01-20T11:00:26.747Z,235.07
2019-01-20T11:02:58.203Z,239.07
2019-01-20T11:05:30.820Z,249.13
2019-01-20T11:08:00.600Z,272.07
2019-01-20T11:10:30.063Z,251.27
2019-01-20T11:12:59.570Z,258.00
2019-01-20T11:15:29.003Z,245.70
2019-01-20T11:17:58.402Z,250.77
2019-01-20T11:20:28.488Z,246.10
2019-01-20T11:22:57.995Z,244.30
2019-01-20T11:25:28.869Z,247.13
2019-01-20T11:27:58.243Z,242.23
2019-01-20T11:30:27.639Z,213.07
2019-01-20T11:32:57.162Z,218.07
2019-01-20T11:35:28.206Z,228.13
2019-01-20T11:37:57.642Z,217.00
2019-01-20T11:40:26.991Z,211.60
2019-01-20T11:42:56.487Z,219.83
2019-01-20T11:45:29.721Z,214.93
2019-01-20T11:47:59.128Z,213.23
2019-01-20T11:50:28.736Z,213.73
2019-01-20T11:52:58.236Z,216.93
2019-01-20T11:55:27.582Z,214.37
2019-01-20T11:57:56.967Z,218.33
2019-01-20T12:00:30.560Z,203.77
2019-01-20T12:03:00.039Z,217.20
2019-01-20T12:05:29.924Z,200.03
2019-01-20T12:07:59.503Z,205.47
2019-01-20T12:10:28.870Z,200.03
2019-01-20T12:12:59.862Z,196.73
2019-01-20T12:15:29.285Z,193.83
2019-01-20T12:17:58.755Z,189.93
2019-01-20T12:20:28.235Z,202.07
2019-01-20T12:22:57.730Z,177.47
2019-01-20T12:25:27.256Z,178.10
2019-01-20T12:27:56.858Z,179.77
2019-01-20T12:30:27.884Z,168.43
2019-01-20T12:32:57.399Z,174.23
2019-01-20T12:35:26.796Z,175.07
2019-01-20T12:37:56.305Z,166.73
2019-01-20T12:46:42.781Z,65.80
2019-01-20T12:49:12.761Z,66.25
2019-01-20T12:57:24.286Z,59.48
2019-01-20T13:02:19.499Z,148.07
2019-01-20T13:04:49.463Z,156.70
2019-01-20T13:07:20.502Z,168.93
2019-01-20T13:09:50.461Z,169.00
2019-01-20T13:12:20.437Z,167.97
2019-01-20T13:14:50.414Z,166.00
2019-01-20T13:17:20.386Z,166.73
2019-01-20T13:19:51.053Z,170.37
2019-01-20T13:22:21.524Z,168.57
2019-01-20T13:24:58.150Z,177.53
2019-01-20T13:27:28.953Z,167.73
2019-01-20T13:29:58.890Z,165.13
2019-01-20T13:32:32.472Z,178.23
2019-01-20T13:35:02.423Z,171.43
2019-01-20T13:37:32.312Z,175.90
2019-01-20T13:40:02.759Z,172.67
2019-01-20T13:42:33.231Z,177.60
2019-01-20T13:45:03.452Z,162.13
2019-01-20T13:47:38.817Z,167.97
2019-01-20T13:50:11.377Z,173.07
2019-01-20T13:52:42.918Z,170.87
2019-01-20T13:55:16.679Z,172.83
2019-01-20T13:57:47.370Z,182.47
2019-01-20T14:00:20.579Z,213.73
2019-01-20T14:02:50.740Z,179.37
2019-01-20T14:05:20.605Z,173.37
2019-01-20T14:07:52.980Z,164.63
2019-01-20T14:10:27.163Z,176.83
2019-01-20T14:12:58.140Z,169.40
2019-01-20T14:15:28.757Z,162.40
2019-01-20T14:17:59.204Z,166.33
2019-01-20T14:20:29.409Z,148.20
2019-01-20T14:22:59.451Z,149.70
2019-01-20T14:25:30.548Z,154.70
2019-01-20T14:28:00.547Z,145.17
2019-01-20T14:30:37.605Z,142.80
2019-01-20T14:33:08.514Z,143.90
2019-01-20T14:35:39.863Z,150.23
2019-01-20T14:38:09.968Z,140.03
2019-01-20T14:40:39.951Z,146.23
2019-01-20T14:43:11.210Z,139.93
2019-01-20T14:45:42.079Z,148.60
2019-01-20T14:48:13.070Z,139.23
2019-01-20T14:50:43.097Z,142.70
2019-01-20T14:53:13.446Z,137.57
2019-01-20T14:55:43.566Z,126.17
2019-01-20T14:58:13.649Z,129.83
2019-01-20T15:00:44.192Z,127.23
2019-01-20T15:03:15.043Z,120.97
2019-01-20T15:05:45.856Z,137.87
2019-01-20T15:08:17.086Z,117.43
2019-01-20T15:10:47.420Z,114.70
2019-01-20T15:13:17.980Z,127.23
2019-01-20T15:15:49.118Z,123.83
2019-01-20T15:18:19.551Z,136.90
2019-01-20T15:20:50.290Z,120.93
2019-01-20T15:23:21.023Z,124.93
2019-01-20T15:25:51.144Z,130.13
2019-01-20T15:28:22.555Z,141.00
2019-01-20T15:30:52.568Z,130.13
2019-01-20T15:33:22.488Z,139.17
2019-01-20T15:35:52.492Z,136.00
2019-01-20T15:38:23.744Z,139.73
2019-01-20T15:40:53.617Z,143.33
2019-01-20T15:43:23.481Z,153.33
2019-01-20T15:45:54.443Z,135.87
2019-01-20T15:48:24.352Z,134.27
2019-01-20T15:50:54.591Z,132.37
2019-01-20T15:53:24.657Z,127.40
2019-01-20T15:55:54.562Z,134.57
2019-01-20T15:58:24.412Z,135.50
2019-01-20T16:00:54.278Z,140.13
2019-01-20T16:03:24.275Z,142.67
2019-01-20T16:05:54.260Z,145.73
2019-01-20T16:08:24.259Z,143.37
2019-01-20T16:11:11.174Z,143.63
2019-01-20T16:13:41.167Z,153.57
2019-01-20T16:16:11.015Z,147.63
2019-01-20T16:18:40.892Z,164.17
2019-01-20T16:21:10.871Z,157.17
2019-01-20T16:23:43.735Z,163.93
2019-01-20T16:26:15.483Z,174.00
2019-01-20T16:28:45.451Z,190.33
2019-01-20T16:31:15.343Z,204.17
2019-01-20T16:33:45.303Z,203.00
2019-01-20T16:36:15.298Z,210.97
2019-01-20T16:38:45.119Z,207.50
2019-01-20T16:41:15.355Z,204.97
2019-01-20T16:43:45.544Z,181.27
2019-01-20T16:46:15.508Z,174.47
2019-01-20T16:48:45.470Z,159.23
2019-01-20T16:51:15.832Z,155.73
2019-01-20T16:53:46.754Z,163.33
2019-01-20T16:56:17.030Z,164.90
2019-01-20T16:58:51.340Z,148.30
2019-01-20T17:01:19.955Z,159.80
2019-01-20T17:03:50.016Z,161.37
2019-01-20T17:06:20.224Z,163.27
2019-01-20T17:08:50.452Z,164.63
2019-01-20T17:11:20.455Z,169.03
2019-01-20T17:13:50.546Z,158.33
2019-01-20T17:16:22.249Z,159.20
2019-01-20T17:18:52.519Z,153.23
2019-01-20T17:21:22.816Z,153.90
2019-01-20T17:23:52.698Z,161.30
2019-01-20T17:26:22.829Z,158.73
2019-01-20T17:28:52.817Z,158.33
2019-01-20T17:31:22.867Z,154.17
2019-01-20T17:33:54.532Z,163.07
2019-01-20T17:36:24.497Z,150.60
2019-01-20T17:38:54.527Z,164.83
2019-01-20T17:41:24.888Z,167.10
2019-01-20T17:43:55.270Z,165.90
2019-01-20T17:46:25.538Z,167.50
2019-01-20T17:48:55.585Z,169.13
2019-01-20T17:51:25.820Z,170.63
2019-01-20T17:53:56.139Z,177.30
2019-01-20T17:56:26.762Z,179.70
2019-01-20T17:58:57.026Z,181.90
2019-01-20T18:01:28.380Z,179.93
2019-01-20T18:03:59.357Z,181.80
2019-01-20T18:06:30.400Z,185.33
2019-01-20T18:09:01.063Z,177.73
2019-01-20T18:11:32.863Z,204.00
2019-01-20T18:14:03.298Z,212.47
2019-01-20T18:16:33.637Z,216.87
2019-01-20T18:19:05.849Z,223.87
2019-01-20T18:21:36.573Z,204.50
2019-01-20T18:24:08.819Z,208.90
2019-01-20T18:26:39.302Z,212.70
2019-01-20T18:29:11.742Z,214.07
2019-01-20T18:31:42.671Z,243.33
2019-01-20T18:34:13.449Z,254.23
2019-01-20T18:36:43.423Z,257.97
2019-01-20T18:39:14.579Z,260.30
2019-01-20T18:41:45.022Z,261.30
2019-01-20T18:44:16.533Z,255.53
2019-01-20T18:46:47.656Z,258.00
2019-01-20T18:49:19.673Z,251.13
2019-01-20T18:51:52.284Z,252.63
2019-01-20T18:54:23.368Z,259.77
2019-01-20T18:56:53.568Z,248.67
2019-01-20T18:59:24.013Z,256.03
2019-01-20T19:01:54.293Z,258.00
2019-01-20T19:04:24.284Z,249.20
2019-01-20T19:06:56.640Z,256.47
2019-01-20T19:09:30.618Z,260.70
2019-01-20T19:12:01.005Z,273.97
2019-01-20T19:14:32.893Z,264.13
2019-01-20T19:17:03.232Z,278.83
2019-01-20T19:19:33.917Z,275.20
2019-01-20T19:22:04.296Z,271.50
2019-01-20T19:24:34.779Z,278.17
2019-01-20T19:27:05.211Z,267.57
2019-01-20T19:29:35.639Z,265.67
2019-01-20T19:32:06.174Z,260.80
2019-01-20T19:34:36.346Z,268.20
2019-01-20T19:37:06.846Z,277.10
2019-01-20T19:39:37.161Z,257.00
2019-01-20T19:42:08.198Z,279.67
2019-01-20T19:44:38.317Z,262.97
2019-01-20T19:47:08.525Z,280.57
2019-01-20T19:49:39.423Z,269.67
2019-01-20T19:52:09.622Z,276.93
2019-01-20T19:54:40.712Z,249.17
2019-01-20T19:57:10.888Z,255.70
2019-01-20T19:59:40.873Z,259.77
2019-01-20T20:02:11.094Z,268.00
2019-01-20T20:04:42.858Z,253.90
2019-01-20T20:07:15.276Z,248.43
2019-01-20T20:09:51.220Z,314.33
2019-01-20T20:12:21.785Z,318.57
2019-01-20T20:14:52.285Z,337.40
2019-01-20T20:17:22.951Z,366.80
2019-01-20T20:19:55.419Z,376.97
2019-01-20T20:22:31.674Z,360.87
2019-01-20T20:25:01.648Z,396.40
2019-01-20T20:27:45.565Z,430.17
2019-01-20T20:30:43.377Z,405.73
2019-01-20T20:33:14.289Z,421.33
2019-01-20T20:35:45.285Z,412.00
2019-01-20T20:38:18.297Z,407.83
2019-01-20T20:40:50.291Z,411.73
2019-01-20T20:43:21.226Z,447.13
2019-01-20T20:45:52.755Z,429.63
2019-01-20T20:48:24.377Z,402.83
2019-01-20T20:50:55.145Z,413.27
2019-01-20T20:53:27.450Z,380.63
2019-01-20T20:56:01.227Z,390.47
2019-01-20T20:58:30.633Z,395.43
2019-01-20T21:01:02.463Z,413.53
2019-01-20T21:03:33.375Z,385.77
2019-01-20T21:06:03.795Z,390.37
2019-01-20T21:08:34.131Z,417.33
2019-01-20T21:11:05.077Z,408.70
2019-01-20T21:13:36.330Z,434.17
2019-01-20T21:16:09.082Z,421.80
2019-01-20T21:18:39.381Z,434.30
2019-01-20T21:21:10.455Z,449.20
2019-01-20T21:23:42.646Z,426.70
2019-01-20T21:26:14.758Z,420.80
2019-01-20T21:28:45.349Z,418.67
2019-01-20T21:31:17.291Z,427.80
2019-01-20T21:33:48.341Z,438.60
2019-01-20T21:36:21.503Z,420.07
2019-01-20T21:38:55.084Z,447.53
2019-01-20T21:41:26.003Z,413.43
2019-01-20T21:43:57.042Z,420.53
2019-01-20T21:46:28.603Z,422.10
2019-01-20T21:48:58.661Z,437.00
2019-01-20T21:51:30.041Z,452.07
2019-01-20T21:54:05.161Z,453.47
2019-01-20T21:56:37.947Z,453.40
2019-01-20T21:59:13.855Z,467.57
2019-01-20T22:01:48.355Z,452.37
2019-01-20T22:04:19.302Z,466.57
2019-01-20T22:06:50.585Z,490.40
2019-01-20T22:09:21.287Z,499.70
2019-01-20T22:11:51.463Z,495.60
2019-01-20T22:14:23.907Z,494.47
2019-01-20T22:16:55.269Z,493.50
2019-01-20T22:19:26.488Z,523.93
2019-01-20T22:21:57.076Z,499.57
2019-01-20T22:24:27.902Z,470.77
2019-01-20T22:26:58.595Z,494.83
2019-01-20T22:29:30.569Z,492.87
2019-01-20T22:32:02.145Z,509.27
2019-01-20T22:34:32.277Z,503.20
2019-01-20T22:37:02.209Z,498.53
2019-01-20T22:39:33.769Z,516.47
2019-01-20T22:42:05.092Z,500.83
2019-01-20T22:44:35.628Z,501.83
2019-01-20T22:47:05.916Z,529.97
2019-01-20T22:49:36.972Z,511.17
2019-01-20T22:52:07.657Z,514.07
2019-01-20T22:54:37.662Z,516.30
2019-01-20T22:57:08.382Z,529.97
2019-01-20T22:59:38.422Z,539.27
2019-01-20T23:02:08.448Z,536.20
2019-01-20T23:04:38.850Z,518.50
2019-01-20T23:07:09.389Z,540.53
2019-01-20T23:09:39.438Z,541.70
2019-01-20T23:12:09.825Z,565.53
2019-01-20T23:14:39.882Z,558.40
2019-01-20T23:17:29.053Z,546.90
2019-01-20T23:19:59.039Z,552.77
2019-01-20T23:22:29.180Z,541.70
2019-01-20T23:25:00.401Z,557.90
2019-01-20T23:27:30.523Z,551.17
2019-01-20T23:30:00.966Z,555.40
2019-01-20T23:32:33.424Z,563.33
2019-01-20T23:35:03.486Z,587.87
2019-01-20T23:37:33.421Z,572.00
2019-01-20T23:40:03.772Z,581.47
2019-01-20T23:42:33.732Z,574.63
2019-01-20T23:45:03.618Z,570.97
2019-01-20T23:47:33.835Z,564.03
2019-01-20T23:50:04.578Z,567.90
2019-01-20T23:52:34.727Z,561.57
2019-01-20T23:55:05.505Z,558.10
2019-01-20T23:57:35.611Z,572.60
